createdAt,value
2023-03-01T00:00:50.593Z,9.77
2023-03-01T00:03:23.620Z,7.80
2023-03-01T00:05:53.835Z,7.03
2023-03-01T00:08:23.981Z,7.17
2023-03-01T00:11:07.219Z,7.70
2023-03-01T00:13:38.871Z,6.97
2023-03-01T00:16:11.265Z,6.70
2023-03-01T00:18:44.695Z,7.23
2023-03-01T00:21:15.291Z,8.50
2023-03-01T00:23:45.632Z,8.47
2023-03-01T00:26:18.865Z,7.60
2023-03-01T00:28:49.459Z,7.30
2023-03-01T00:31:22.809Z,7.27
2023-03-01T00:33:58.371Z,6.93
2023-03-01T00:36:33.105Z,7.40
2023-03-01T00:39:04.116Z,8.20
2023-03-01T00:41:37.951Z,8.23
2023-03-01T00:44:08.378Z,8.03
2023-03-01T00:46:38.619Z,8.77
2023-03-01T00:49:11.543Z,8.23
2023-03-01T00:51:44.840Z,8.40
2023-03-01T00:54:14.975Z,7.93
2023-03-01T00:56:45.215Z,7.53
2023-03-01T00:59:15.445Z,8.10
2023-03-01T01:01:45.954Z,7.90
2023-03-01T01:04:19.109Z,8.63
2023-03-01T01:06:50.750Z,7.90
2023-03-01T01:09:21.767Z,8.70
2023-03-01T01:11:55.384Z,8.23
2023-03-01T01:14:26.777Z,7.30
2023-03-01T01:16:56.984Z,7.83
2023-03-01T01:19:30.644Z,8.40
2023-03-01T01:22:00.898Z,8.53
2023-03-01T01:24:31.116Z,8.43
2023-03-01T01:27:01.377Z,7.70
2023-03-01T01:29:31.668Z,9.20
2023-03-01T01:32:01.862Z,7.63
2023-03-01T01:34:36.822Z,7.00
2023-03-01T01:37:09.908Z,7.07
2023-03-01T01:39:42.366Z,7.53
2023-03-01T01:42:18.831Z,7.30
2023-03-01T01:44:52.528Z,7.47
2023-03-01T01:47:27.009Z,6.50
2023-03-01T01:50:01.174Z,7.27
2023-03-01T01:52:38.175Z,7.43
2023-03-01T01:55:15.882Z,7.13
2023-03-01T01:57:50.339Z,7.53
2023-03-01T02:00:24.611Z,7.87
2023-03-01T02:03:01.720Z,7.97
2023-03-01T02:05:44.356Z,8.47
2023-03-01T02:08:20.726Z,7.17
2023-03-01T02:10:55.836Z,7.33
2023-03-01T02:13:26.159Z,6.97
2023-03-01T02:15:57.181Z,7.67
2023-03-01T02:18:29.154Z,6.57
2023-03-01T02:21:21.281Z,7.00
2023-03-01T02:23:51.622Z,9.20
2023-03-01T02:26:38.042Z,10.67
2023-03-01T02:29:10.912Z,11.83
2023-03-01T02:31:47.137Z,12.20
2023-03-01T02:34:21.383Z,12.37
2023-03-01T02:36:57.508Z,14.00
2023-03-01T02:39:34.320Z,14.30
2023-03-01T02:42:08.084Z,14.50
2023-03-01T02:44:40.740Z,13.90
2023-03-01T02:47:10.987Z,11.57
2023-03-01T02:49:41.895Z,12.63
2023-03-01T02:52:32.148Z,12.17
2023-03-01T02:55:09.956Z,12.97
2023-03-01T02:57:44.553Z,12.20
2023-03-01T03:00:26.745Z,12.83
2023-03-01T03:03:00.745Z,13.20
2023-03-01T03:05:35.034Z,12.57
2023-03-01T03:08:10.357Z,12.97
2023-03-01T03:10:44.557Z,13.27
2023-03-01T03:13:18.228Z,12.73
2023-03-01T03:15:50.938Z,14.00
2023-03-01T03:18:21.756Z,12.63
2023-03-01T03:20:54.698Z,12.70
2023-03-01T03:23:25.839Z,12.47
2023-03-01T03:25:56.236Z,12.20
2023-03-01T03:28:26.437Z,12.70
2023-03-01T03:30:59.395Z,12.33
2023-03-01T03:33:30.861Z,12.10
2023-03-01T03:36:01.083Z,12.93
2023-03-01T03:38:31.241Z,12.33
2023-03-01T03:41:08.294Z,11.43
2023-03-01T03:43:43.717Z,12.33
2023-03-01T03:46:18.095Z,12.73
2023-03-01T03:48:51.371Z,13.17
2023-03-01T03:51:23.740Z,11.97
2023-03-01T03:53:53.962Z,12.30
2023-03-01T03:56:28.571Z,11.90
2023-03-01T03:58:59.212Z,11.33
2023-03-01T04:01:42.017Z,11.30
2023-03-01T04:04:14.677Z,11.60
2023-03-01T04:06:44.812Z,11.83
2023-03-01T04:09:14.930Z,12.20
2023-03-01T04:11:45.024Z,11.80
2023-03-01T04:14:15.201Z,12.13
2023-03-01T04:16:48.184Z,12.17
2023-03-01T04:19:18.310Z,11.77
2023-03-01T04:21:48.421Z,12.70
2023-03-01T04:24:18.559Z,11.80
2023-03-01T04:26:49.910Z,11.23
2023-03-01T04:29:20.124Z,11.37
2023-03-01T04:31:52.985Z,11.23
2023-03-01T04:34:23.510Z,11.40
2023-03-01T04:36:53.647Z,11.80
2023-03-01T04:39:24.190Z,11.87
2023-03-01T04:41:54.356Z,12.20
2023-03-01T04:44:24.577Z,12.10
2023-03-01T04:46:57.246Z,11.93
2023-03-01T04:49:29.506Z,11.57
2023-03-01T04:52:03.046Z,12.03
2023-03-01T04:54:33.690Z,11.57
2023-03-01T04:57:04.712Z,11.60
2023-03-01T04:59:34.887Z,12.30
2023-03-01T05:02:07.544Z,12.20
2023-03-01T05:04:37.696Z,12.03
2023-03-01T05:07:07.874Z,13.40
2023-03-01T05:09:39.636Z,12.53
2023-03-01T05:12:11.216Z,12.73
2023-03-01T05:14:42.232Z,12.53
2023-03-01T05:17:14.921Z,11.73
2023-03-01T05:19:45.050Z,12.00
2023-03-01T05:22:15.114Z,12.43
2023-03-01T05:24:45.201Z,11.80
2023-03-01T05:27:15.878Z,21.33
2023-03-01T05:29:46.424Z,13.43
2023-03-01T05:32:19.203Z,12.37
2023-03-01T05:34:50.000Z,12.83
2023-03-01T05:37:20.523Z,13.03
2023-03-01T05:39:51.467Z,13.77
2023-03-01T05:42:23.749Z,13.87
2023-03-01T05:44:53.954Z,12.33
2023-03-01T05:47:32.716Z,13.07
2023-03-01T05:50:02.958Z,13.73
2023-03-01T05:52:33.350Z,12.53
2023-03-01T05:55:03.541Z,13.33
2023-03-01T05:57:33.655Z,11.73
2023-03-01T06:00:04.029Z,12.37
2023-03-01T06:02:36.920Z,12.50
2023-03-01T06:05:08.054Z,12.00
2023-03-01T06:07:38.780Z,13.00
2023-03-01T06:10:12.376Z,12.77
2023-03-01T06:12:47.288Z,12.90
2023-03-01T06:15:19.739Z,13.13
2023-03-01T06:18:00.709Z,18.70
2023-03-01T06:20:32.835Z,14.83
2023-03-01T06:23:03.337Z,17.67
2023-03-01T06:25:33.715Z,15.67
2023-03-01T06:28:05.496Z,14.67
2023-03-01T06:30:36.279Z,13.20
2023-03-01T06:33:10.259Z,14.23
2023-03-01T06:35:40.675Z,27.27
2023-03-01T06:38:13.999Z,24.67
2023-03-01T06:40:44.506Z,14.47
2023-03-01T06:43:15.224Z,12.80
2023-03-01T06:45:45.332Z,13.27
2023-03-01T06:48:19.416Z,19.10
2023-03-01T06:50:52.064Z,16.80
2023-03-01T06:53:25.294Z,16.40
2023-03-01T06:56:00.244Z,17.10
2023-03-01T06:58:30.503Z,17.63
2023-03-01T07:01:00.642Z,19.73
2023-03-01T07:03:33.316Z,17.80
2023-03-01T07:06:03.445Z,15.83
2023-03-01T07:08:33.510Z,15.37
2023-03-01T07:11:05.185Z,13.33
2023-03-01T07:13:38.332Z,13.30
2023-03-01T07:16:12.223Z,13.53
2023-03-01T07:18:45.726Z,12.77
2023-03-01T07:21:18.207Z,12.77
2023-03-01T07:23:51.195Z,13.23
2023-03-01T07:26:21.408Z,14.00
2023-03-01T07:28:53.686Z,13.93
2023-03-01T07:31:23.999Z,13.93
2023-03-01T07:33:56.856Z,13.53
2023-03-01T07:36:28.108Z,14.40
2023-03-01T07:38:58.937Z,15.97
2023-03-01T07:41:29.181Z,14.70
2023-03-01T07:43:59.556Z,11.67
2023-03-01T07:46:30.952Z,15.60
2023-03-01T07:49:07.191Z,11.83
2023-03-01T07:51:37.500Z,11.00
2023-03-01T07:54:08.009Z,11.27
2023-03-01T07:56:38.936Z,11.20
2023-03-01T07:59:09.082Z,10.03
2023-03-01T08:01:39.430Z,9.73
2023-03-01T08:04:12.672Z,9.37
2023-03-01T08:06:42.829Z,9.70
2023-03-01T08:09:12.966Z,10.00
2023-03-01T08:11:43.167Z,10.53
2023-03-01T08:14:14.152Z,10.95
2023-03-01T08:16:44.452Z,10.27
2023-03-01T08:19:17.189Z,10.30
2023-03-01T08:21:47.508Z,10.55
2023-03-01T08:24:17.770Z,11.27
2023-03-01T08:26:47.951Z,11.65
2023-03-01T08:29:18.063Z,11.95
2023-03-01T08:31:48.343Z,11.70
2023-03-01T08:34:22.222Z,11.63
2023-03-01T08:36:53.768Z,12.00
2023-03-01T08:39:24.799Z,12.10
2023-03-01T08:41:54.951Z,13.60
2023-03-01T08:44:25.583Z,11.00
2023-03-01T08:46:57.243Z,11.33
2023-03-01T08:49:29.955Z,12.03
2023-03-01T08:52:00.266Z,10.73
2023-03-01T08:54:30.400Z,10.33
2023-03-01T08:57:00.779Z,10.50
2023-03-01T08:59:31.585Z,9.70
2023-03-01T09:02:01.791Z,10.87
2023-03-01T09:04:35.006Z,11.00
2023-03-01T09:07:05.167Z,9.93
2023-03-01T09:09:35.357Z,9.70
2023-03-01T09:12:06.469Z,11.07
2023-03-01T09:14:38.323Z,10.63
2023-03-01T09:17:08.577Z,11.67
2023-03-01T09:19:41.626Z,10.87
2023-03-01T09:22:11.714Z,11.23
2023-03-01T09:24:41.820Z,11.47
2023-03-01T09:27:13.868Z,11.77
2023-03-01T09:29:44.024Z,10.63
2023-03-01T09:32:14.313Z,11.23
2023-03-01T09:34:59.482Z,10.95
2023-03-01T09:37:31.075Z,11.05
2023-03-01T09:40:01.378Z,11.63
2023-03-01T09:42:37.551Z,11.25
2023-03-01T09:45:15.142Z,11.98
2023-03-01T09:47:45.596Z,11.70
2023-03-01T09:50:24.710Z,12.25
2023-03-01T09:53:05.503Z,11.82
2023-03-01T09:55:43.635Z,12.02
2023-03-01T09:58:41.411Z,11.82
2023-03-01T10:01:36.283Z,11.73
2023-03-01T10:04:45.183Z,11.90
2023-03-01T10:07:43.989Z,12.32
2023-03-01T10:10:30.830Z,12.73
2023-03-01T10:13:14.465Z,12.45
2023-03-01T10:15:56.329Z,13.40
2023-03-01T10:18:31.673Z,11.35
2023-03-01T10:21:05.327Z,11.63
2023-03-01T10:23:40.287Z,11.65
2023-03-01T10:26:38.740Z,11.77
2023-03-01T10:29:12.870Z,12.32
2023-03-01T10:31:47.986Z,11.80
2023-03-01T10:34:21.469Z,11.18
2023-03-01T10:36:56.380Z,12.15
2023-03-01T10:39:30.759Z,12.27
2023-03-01T10:42:06.662Z,13.43
2023-03-01T10:44:45.593Z,12.35
2023-03-01T10:47:24.427Z,12.57
2023-03-01T10:50:06.739Z,12.07
2023-03-01T10:52:42.976Z,11.90
2023-03-01T10:55:35.146Z,12.88
2023-03-01T10:58:23.192Z,11.65
2023-03-01T11:00:59.243Z,12.27
2023-03-01T11:03:34.319Z,12.52
2023-03-01T11:06:23.257Z,12.00
2023-03-01T11:08:55.636Z,11.38
2023-03-01T11:11:35.970Z,11.68
2023-03-01T11:14:26.948Z,10.75
2023-03-01T11:17:07.430Z,11.93
2023-03-01T11:19:37.667Z,12.20
2023-03-01T11:22:15.757Z,11.60
2023-03-01T11:25:00.096Z,11.63
2023-03-01T11:27:46.966Z,12.55
2023-03-01T11:30:26.834Z,11.55
2023-03-01T11:33:16.801Z,10.73
2023-03-01T11:35:59.451Z,11.57
2023-03-01T11:38:33.171Z,10.93
2023-03-01T11:41:12.475Z,12.60
2023-03-01T11:43:56.527Z,11.20
2023-03-01T11:47:10.867Z,11.32
2023-03-01T11:50:34.180Z,11.07
2023-03-01T11:53:38.056Z,10.68
2023-03-01T11:56:26.073Z,10.27
2023-03-01T11:59:24.324Z,10.55
2023-03-01T12:02:24.290Z,10.48
2023-03-01T12:05:27.234Z,10.30
2023-03-01T12:08:13.724Z,9.02
2023-03-01T12:10:59.952Z,8.75
2023-03-01T12:14:04.460Z,8.87
2023-03-01T12:16:57.329Z,9.53
2023-03-01T12:20:00.509Z,8.97
2023-03-01T12:22:46.264Z,8.90
2023-03-01T12:25:35.048Z,9.00
2023-03-01T12:28:32.104Z,7.87
2023-03-01T12:31:42.728Z,9.17
2023-03-01T12:34:37.818Z,8.23
2023-03-01T12:37:43.954Z,9.70
2023-03-01T12:41:01.141Z,9.00
2023-03-01T12:43:52.527Z,8.80
2023-03-01T12:46:54.558Z,9.00
2023-03-01T12:49:33.806Z,8.90
2023-03-01T12:52:17.142Z,9.53
2023-03-01T12:54:49.459Z,8.30
2023-03-01T12:57:38.131Z,8.97
2023-03-01T13:00:31.852Z,8.30
2023-03-01T13:03:26.945Z,9.03
2023-03-01T13:06:15.231Z,8.20
2023-03-01T13:08:58.970Z,8.30
2023-03-01T13:11:29.066Z,8.53
2023-03-01T13:14:51.930Z,9.33
2023-03-01T13:17:50.947Z,7.93
2023-03-01T13:20:25.505Z,8.50
2023-03-01T13:23:15.097Z,7.83
2023-03-01T13:26:26.282Z,8.10
2023-03-01T13:29:02.330Z,8.47
2023-03-01T13:32:05.737Z,7.97
2023-03-01T13:34:56.008Z,7.80
2023-03-01T13:37:41.657Z,7.70
2023-03-01T13:41:10.702Z,7.50
2023-03-01T13:43:44.487Z,6.80
2023-03-01T13:46:22.136Z,6.63
2023-03-01T13:49:00.424Z,7.10
2023-03-01T13:51:32.242Z,7.43
2023-03-01T13:54:03.194Z,7.83
2023-03-01T13:56:41.578Z,7.80
2023-03-01T13:59:20.919Z,7.37
2023-03-01T14:01:58.131Z,7.87
2023-03-01T14:04:36.908Z,8.13
2023-03-01T14:07:25.189Z,7.00
2023-03-01T14:10:00.362Z,7.33
2023-03-01T14:12:52.232Z,8.07
2023-03-01T14:15:31.113Z,8.80
2023-03-01T14:18:08.263Z,9.97
2023-03-01T14:20:48.335Z,8.37
2023-03-01T14:23:27.959Z,7.87
2023-03-01T14:26:01.837Z,7.67
2023-03-01T14:28:39.914Z,6.83
2023-03-01T14:31:52.085Z,6.90
2023-03-01T14:34:28.363Z,8.37
2023-03-01T14:37:14.059Z,13.40
2023-03-01T14:39:44.230Z,10.17
2023-03-01T14:42:17.043Z,7.60
2023-03-01T14:44:51.290Z,8.37
2023-03-01T14:47:32.039Z,7.77
2023-03-01T14:50:08.633Z,8.57
2023-03-01T14:52:46.124Z,7.33
2023-03-01T14:55:22.906Z,7.07
2023-03-01T14:57:55.578Z,8.13
2023-03-01T15:00:30.201Z,7.87
2023-03-01T15:03:10.825Z,8.07
2023-03-01T15:05:42.854Z,7.43
2023-03-01T15:08:24.642Z,7.30
2023-03-01T15:11:08.943Z,9.60
2023-03-01T15:13:40.198Z,11.50
2023-03-01T15:16:14.934Z,10.27
2023-03-01T15:18:51.723Z,13.50
2023-03-01T15:21:29.649Z,9.13
2023-03-01T15:24:24.172Z,7.87
2023-03-01T15:26:58.678Z,7.90
2023-03-01T15:29:41.425Z,7.33
2023-03-01T15:32:33.671Z,7.10
2023-03-01T15:35:46.672Z,6.47
2023-03-01T15:38:41.464Z,7.23
2023-03-01T15:41:32.145Z,6.93
2023-03-01T15:44:04.330Z,7.33
2023-03-01T15:46:38.585Z,7.40
2023-03-01T15:49:31.061Z,6.57
2023-03-01T15:52:01.376Z,6.60
2023-03-01T15:54:33.127Z,6.93
2023-03-01T15:57:05.982Z,6.33
2023-03-01T15:59:36.339Z,5.90
2023-03-01T16:02:13.572Z,7.27
2023-03-01T16:04:46.223Z,6.97
2023-03-01T16:07:16.394Z,8.87
2023-03-01T16:09:47.208Z,7.67
2023-03-01T16:12:22.291Z,7.67
2023-03-01T16:14:54.034Z,7.50
2023-03-01T16:17:24.162Z,7.10
2023-03-01T16:19:54.376Z,7.60
2023-03-01T16:22:26.267Z,8.33
2023-03-01T16:24:56.625Z,10.67
2023-03-01T16:27:29.359Z,10.53
2023-03-01T16:30:02.440Z,8.57
2023-03-01T16:32:32.648Z,15.80
2023-03-01T16:35:02.966Z,13.90
2023-03-01T16:37:37.250Z,8.23
2023-03-01T16:40:19.484Z,8.87
2023-03-01T16:42:52.273Z,8.10
2023-03-01T16:45:25.083Z,7.83
2023-03-01T16:47:58.802Z,7.70
2023-03-01T16:50:32.563Z,7.17
2023-03-01T16:53:03.563Z,8.07
2023-03-01T16:55:33.978Z,8.90
2023-03-01T16:58:08.627Z,8.77
2023-03-01T17:00:38.736Z,10.80
2023-03-01T17:03:08.881Z,8.73
2023-03-01T17:05:39.042Z,8.97
2023-03-01T17:08:09.706Z,9.47
2023-03-01T17:10:40.108Z,11.40
2023-03-01T17:13:15.670Z,9.13
2023-03-01T17:15:51.329Z,7.10
2023-03-01T17:18:25.207Z,8.30
2023-03-01T17:20:55.775Z,7.27
2023-03-01T17:23:26.079Z,7.67
2023-03-01T17:25:56.898Z,7.67
2023-03-01T17:28:34.470Z,10.63
2023-03-01T17:31:07.224Z,8.30
2023-03-01T17:33:37.755Z,9.27
2023-03-01T17:36:11.284Z,7.40
2023-03-01T17:38:41.424Z,8.40
2023-03-01T17:41:12.321Z,8.27
2023-03-01T17:43:44.974Z,9.73
2023-03-01T17:46:15.699Z,7.80
2023-03-01T17:48:45.819Z,7.37
2023-03-01T17:51:16.111Z,7.90
2023-03-01T17:53:46.294Z,7.87
2023-03-01T17:56:16.488Z,8.10
2023-03-01T17:58:49.647Z,7.27
2023-03-01T18:01:25.531Z,7.20
2023-03-01T18:03:58.319Z,6.87
2023-03-01T18:06:31.136Z,7.30
2023-03-01T18:09:01.442Z,13.37
2023-03-01T18:11:32.961Z,7.27
2023-03-01T18:14:07.208Z,6.90
2023-03-01T18:16:39.772Z,6.67
2023-03-01T18:19:10.013Z,7.13
2023-03-01T18:21:41.887Z,6.97
2023-03-01T18:24:20.945Z,6.80
2023-03-01T18:26:51.189Z,7.00
2023-03-01T18:29:23.919Z,6.50
2023-03-01T18:31:56.893Z,6.60
2023-03-01T18:34:28.827Z,7.70
2023-03-01T18:37:09.519Z,6.63
2023-03-01T18:39:45.520Z,6.17
2023-03-01T18:42:16.446Z,6.73
2023-03-01T18:44:49.339Z,6.77
2023-03-01T18:47:19.969Z,7.67
2023-03-01T18:49:50.094Z,9.67
2023-03-01T18:52:20.197Z,7.90
2023-03-01T18:54:50.466Z,6.77
2023-03-01T18:57:20.547Z,5.70
2023-03-01T18:59:53.285Z,6.20
2023-03-01T19:02:24.854Z,6.20
2023-03-01T19:04:55.202Z,6.93
2023-03-01T19:07:25.591Z,6.70
2023-03-01T19:09:55.750Z,6.43
2023-03-01T19:12:28.165Z,5.87
2023-03-01T19:15:00.937Z,5.53
2023-03-01T19:17:33.767Z,6.33
2023-03-01T19:20:04.008Z,6.20
2023-03-01T19:22:35.659Z,7.00
2023-03-01T19:25:06.183Z,7.03
2023-03-01T19:27:36.293Z,8.57
2023-03-01T19:30:13.455Z,8.67
2023-03-01T19:32:46.509Z,8.03
2023-03-01T19:35:19.048Z,10.17
2023-03-01T19:40:46.848Z,8.67
2023-03-01T19:43:20.769Z,7.90
2023-03-01T19:45:58.362Z,7.60
2023-03-01T19:48:28.792Z,6.93
2023-03-01T19:50:59.541Z,7.63
2023-03-01T19:53:30.012Z,7.83
2023-03-01T19:56:01.225Z,8.10
2023-03-01T19:58:34.049Z,7.37
2023-03-01T20:01:19.110Z,7.73
2023-03-01T20:03:50.811Z,7.80
2023-03-01T20:06:23.245Z,7.93
2023-03-01T20:08:53.378Z,8.50
2023-03-01T20:11:24.753Z,7.20
2023-03-01T20:13:54.895Z,6.97
2023-03-01T20:16:30.787Z,7.50
2023-03-01T20:19:03.850Z,8.60
2023-03-01T20:21:34.321Z,12.10
2023-03-01T20:24:04.905Z,11.37
2023-03-01T20:26:35.242Z,10.07
2023-03-01T20:29:05.444Z,10.57
2023-03-01T20:31:39.897Z,10.17
2023-03-01T20:34:10.095Z,9.20
2023-03-01T20:36:55.212Z,8.40
2023-03-01T20:39:27.430Z,7.70
2023-03-01T20:41:57.493Z,7.83
2023-03-01T20:44:27.572Z,7.33
2023-03-01T20:47:00.360Z,9.23
2023-03-01T20:49:33.338Z,9.13
2023-03-01T20:52:03.480Z,8.40
2023-03-01T20:54:33.614Z,7.90
2023-03-01T20:57:03.738Z,7.33
2023-03-01T20:59:34.969Z,7.13
2023-03-01T21:02:07.713Z,6.90
2023-03-01T21:04:37.851Z,7.23
2023-03-01T21:07:08.001Z,7.37
2023-03-01T21:09:39.871Z,7.03
2023-03-01T21:12:10.773Z,6.47
2023-03-01T21:14:47.230Z,7.20
2023-03-01T21:17:21.404Z,7.03
2023-03-01T21:19:51.556Z,8.17
2023-03-01T21:22:21.787Z,8.00
2023-03-01T21:24:56.040Z,8.50
2023-03-01T21:27:26.457Z,7.87
2023-03-01T21:29:56.787Z,7.17
2023-03-01T21:32:29.627Z,7.57
2023-03-01T21:34:59.787Z,7.43
2023-03-01T21:37:30.179Z,7.57
2023-03-01T21:40:00.741Z,7.70
2023-03-01T21:42:31.994Z,8.00
2023-03-01T21:45:02.464Z,7.20
2023-03-01T21:47:36.299Z,7.63
2023-03-01T21:50:08.625Z,8.43
2023-03-01T21:52:38.841Z,7.90
2023-03-01T21:55:10.432Z,8.37
2023-03-01T21:57:43.778Z,7.80
2023-03-01T22:00:18.077Z,9.63
2023-03-01T22:02:50.877Z,12.10
2023-03-01T22:05:20.952Z,9.60
2023-03-01T22:07:51.045Z,8.33
2023-03-01T22:10:26.959Z,7.43
2023-03-01T22:12:58.111Z,7.67
2023-03-01T22:15:29.958Z,7.00
2023-03-01T22:18:03.355Z,6.43
2023-03-01T22:20:33.506Z,7.03
2023-03-01T22:23:03.867Z,6.77
2023-03-01T22:25:35.120Z,7.83
2023-03-01T22:28:05.440Z,6.27
2023-03-01T22:30:35.923Z,6.30
2023-03-01T22:33:09.166Z,7.17
2023-03-01T22:35:39.324Z,7.17
2023-03-01T22:38:09.570Z,7.10
2023-03-01T22:40:40.063Z,7.00
2023-03-01T22:43:10.283Z,6.67
2023-03-01T22:45:43.377Z,6.83
2023-03-01T22:48:16.323Z,7.40
2023-03-01T22:50:51.002Z,7.37
2023-03-01T22:53:24.160Z,7.87
2023-03-01T22:55:54.302Z,7.53
2023-03-01T22:58:24.722Z,7.17
2023-03-01T23:00:54.850Z,6.63
2023-03-01T23:03:27.630Z,6.67
2023-03-01T23:05:57.801Z,6.97
2023-03-01T23:08:27.951Z,6.47
2023-03-01T23:10:58.092Z,6.97
2023-03-01T23:13:28.555Z,6.73
2023-03-01T23:16:00.623Z,7.20
2023-03-01T23:18:33.400Z,7.37
2023-03-01T23:21:03.565Z,7.43
2023-03-01T23:23:33.693Z,7.27
2023-03-01T23:26:03.767Z,8.10
2023-03-01T23:28:33.984Z,8.43
2023-03-01T23:31:07.956Z,7.57
2023-03-01T23:33:43.146Z,7.47
2023-03-01T23:36:20.959Z,7.40
2023-03-01T23:38:54.149Z,7.87
2023-03-01T23:41:27.691Z,7.73
2023-03-01T23:44:00.527Z,7.37
2023-03-01T23:46:35.286Z,7.80
2023-03-01T23:49:08.566Z,7.50
2023-03-01T23:51:38.655Z,7.83
2023-03-01T23:54:09.172Z,7.20
2023-03-01T23:56:42.020Z,7.53
2023-03-01T23:59:16.430Z,6.30
